Parma — V2OZ9 — position and weather

sailwx.info

Track history (hours):
 
Tides and Currents Weather Stations Pressure Air Temp Water Temp Dewpoint Dewpoint Depression Visibility Wind Speed Wind Dir Waves Ship Positions

Parma

Last reported at 2014-Sep-20 05:33 UTC. Time now 2014-Sep-21 16:08 UTC.
Position N 39°23' E 013°44'.

MMSI: 279073176.

Date/timePositionNaut miles runAvg speedWind from/ knotsBaromVisibWave heightAir tempDewpointWater temp
2014-Sep-20 05:33N 39°23' E 013°44'10 9.6
2014-Sep-20 04:33N 39°28' E 013°33'10 9.6
2014-Sep-20 03:33N 39°34' E 013°23'370 9.0
2014-Sep-18 10:16N 42°37' E 006°17'5 7.8
2014-Sep-18 09:33N 42°39' E 006°10'7 7.3
2014-Sep-18 08:33N 42°42' E 006°01'7 7.0
2014-Sep-18 07:31N 42°46' E 005°52'6 6.5
2014-Sep-18 06:33N 42°50' E 005°46'7 6.6
2014-Sep-18 05:33N 42°54' E 005°39'7 6.8
2014-Sep-18 04:33N 42°58' E 005°31'21 6.8
2014-Sep-18 01:31N 43°12' E 005°10'7 7.6
2014-Sep-18 00:33N 43°16' E 005°02'8 7.7
2014-Sep-17 23:33N 43°23' E 004°57'4 3.6
2014-Sep-17 22:33N 43°26' E 004°54'0 0.0
2014-Sep-17 21:31N 43°26' E 004°54'0 0.0
2014-Sep-17 20:31N 43°26' E 004°54'0 0.0
2014-Sep-17 19:32N 43°26' E 004°54'0 0.0
2014-Sep-17 18:32N 43°26' E 004°54'0 0.0
2014-Sep-17 17:32N 43°26' E 004°54'0 0.0
2014-Sep-17 16:32N 43°26' E 004°54'0 0.0
2014-Sep-17 15:32N 43°26' E 004°54'0 0.0
2014-Sep-17 14:32N 43°26' E 004°54'0 0.0
2014-Sep-17 13:33N 43°26' E 004°54'0 0.0
2014-Sep-17 12:33N 43°26' E 004°54'0 0.0
2014-Sep-17 11:33N 43°26' E 004°54'0 0.0
2014-Sep-17 10:33N 43°26' E 004°54'0 0.0
2014-Sep-17 09:33N 43°26' E 004°54'0 0.4
2014-Sep-17 08:33N 43°25' E 004°53'2 2.1
2014-Sep-17 07:31N 43°24' E 004°51'0 0.0
2014-Sep-17 06:25N 43°24' E 004°51'0 0.0
2014-Sep-17 05:31N 43°24' E 004°51'0 0.0
2014-Sep-17 04:28N 43°24' E 004°51'0 0.0
2014-Sep-17 03:31N 43°24' E 004°51'0 0.0
2014-Sep-17 02:31N 43°24' E 004°51'0 0.0
2014-Sep-17 01:28N 43°24' E 004°51'0 0.0
2014-Sep-17 00:28N 43°24' E 004°51'0 0.0
2014-Sep-16 23:28N 43°24' E 004°51'0 0.0
2014-Sep-16 22:28N 43°24' E 004°51'0 0.0
2014-Sep-16 21:31N 43°24' E 004°51'0 0.0
2014-Sep-16 20:28N 43°24' E 004°51'0 0.0
2014-Sep-16 19:28N 43°24' E 004°51'0 0.0
2014-Sep-16 18:28N 43°24' E 004°51'0 0.0
2014-Sep-16 17:31N 43°24' E 004°51'0 0.0
2014-Sep-16 16:28N 43°24' E 004°51'0 0.0
2014-Sep-16 15:28N 43°24' E 004°51'0 0.0
2014-Sep-16 14:28N 43°24' E 004°51'0 0.0
2014-Sep-16 13:25N 43°24' E 004°51'0 0.0
2014-Sep-16 12:28N 43°24' E 004°51'0 0.0
2014-Sep-16 11:28N 43°24' E 004°51'0 0.0
2014-Sep-16 10:31N 43°24' E 004°51'0 0.0
2014-Sep-16 09:31N 43°24' E 004°51'0 0.0
2014-Sep-16 08:31N 43°24' E 004°51'0 0.0
2014-Sep-16 07:28N 43°24' E 004°51'0 0.0
2014-Sep-16 06:25N 43°24' E 004°51'0 0.0
2014-Sep-16 05:31N 43°24' E 004°51'0 0.0
2014-Sep-16 04:28N 43°24' E 004°51'0 0.0
2014-Sep-16 03:28N 43°24' E 004°51'0 0.0
2014-Sep-16 02:31N 43°24' E 004°51'0 0.0
2014-Sep-16 01:31N 43°24' E 004°51'0 0.0
2014-Sep-16 00:31N 43°24' E 004°51'0 0.0
2014-Sep-15 23:31N 43°24' E 004°51'0 0.0
2014-Sep-15 22:31N 43°24' E 004°51'0 0.0
2014-Sep-15 21:22N 43°24' E 004°51'0 0.0
2014-Sep-15 20:31N 43°24' E 004°51'0 0.0
2014-Sep-15 19:31N 43°24' E 004°51'0 0.0
2014-Sep-15 18:31N 43°24' E 004°51'0 0.0
2014-Sep-15 17:28N 43°24' E 004°51'0 0.0
2014-Sep-15 16:31N 43°24' E 004°51'0 0.0
2014-Sep-15 15:31N 43°24' E 004°51'0 0.0
2014-Sep-15 14:31N 43°24' E 004°51'0 0.0
2014-Sep-15 13:28N 43°24' E 004°51'0 0.0
2014-Sep-15 12:31N 43°24' E 004°51'0 0.0
2014-Sep-15 11:31N 43°24' E 004°51'0 0.0
2014-Sep-15 10:28N 43°24' E 004°51'0 0.0
2014-Sep-15 09:31N 43°24' E 004°51'0 0.0
2014-Sep-15 08:28N 43°24' E 004°51'0 0.0
2014-Sep-15 07:31N 43°24' E 004°51'0 0.0
2014-Sep-15 06:31N 43°24' E 004°51'0 0.0
2014-Sep-15 05:31N 43°24' E 004°51'0 0.0
2014-Sep-15 04:31N 43°24' E 004°51'0 0.0
2014-Sep-15 03:28N 43°24' E 004°51'0 0.0
2014-Sep-15 02:28N 43°24' E 004°51'0 0.0
2014-Sep-15 01:25N 43°24' E 004°51'0 0.0
2014-Sep-15 00:25N 43°24' E 004°51'0 0.0
2014-Sep-14 23:31N 43°24' E 004°51'0 0.0
2014-Sep-14 22:28N 43°24' E 004°51'0 0.0
2014-Sep-14 21:28N 43°24' E 004°51'0 0.0
2014-Sep-14 20:25N 43°24' E 004°51'0 0.0
2014-Sep-14 19:22N 43°24' E 004°51'0 0.0
2014-Sep-14 18:31N 43°24' E 004°51'0 0.0
2014-Sep-14 17:28N 43°24' E 004°51'0 0.0
2014-Sep-14 16:28N 43°24' E 004°51'0 0.0
2014-Sep-14 15:31N 43°24' E 004°51'0 0.0
2014-Sep-14 14:31N 43°24' E 004°51'0 0.0
2014-Sep-14 13:28N 43°24' E 004°51'0 0.0
2014-Sep-14 12:28N 43°24' E 004°51'0 0.0
2014-Sep-14 11:28N 43°24' E 004°51'0 0.0
2014-Sep-14 10:31N 43°24' E 004°51'4 3.9
2014-Sep-14 09:33N 43°23' E 004°56'8 8.4
2014-Sep-14 08:33N 43°16' E 005°02'1310.3
2014-Sep-14 07:19N 43°08' E 005°15'1810.2
2014-Sep-14 05:33N 42°56' E 005°34'1110.6
2014-Sep-14 04:33N 42°50' E 005°46'1110.5
2014-Sep-14 03:33N 42°45' E 005°58'1010.1
2014-Sep-14 02:34N 42°40' E 006°10'10 9.6
2014-Sep-14 01:33N 42°35' E 006°22'  
Track history (hours):
 
Tides and Currents Weather Stations Pressure Air Temp Water Temp Dewpoint Dewpoint Depression Visibility Wind Speed Wind Dir Waves Ship Positions

Parma

Last reported at 2014-Sep-20 05:33 UTC. Time now 2014-Sep-21 16:08 UTC.
Position N 39°23' E 013°44'.

MMSI: 279073176.

Date/timePositionNaut miles runAvg speedWind from/ knotsBaromVisibWave heightAir tempDewpointWater temp
2014-Sep-20 05:33N 39°23' E 013°44'10 9.6
2014-Sep-20 04:33N 39°28' E 013°33'10 9.6
2014-Sep-20 03:33N 39°34' E 013°23'370 9.0
2014-Sep-18 10:16N 42°37' E 006°17'5 7.8
2014-Sep-18 09:33N 42°39' E 006°10'7 7.3
2014-Sep-18 08:33N 42°42' E 006°01'7 7.0
2014-Sep-18 07:31N 42°46' E 005°52'6 6.5
2014-Sep-18 06:33N 42°50' E 005°46'7 6.6
2014-Sep-18 05:33N 42°54' E 005°39'7 6.8
2014-Sep-18 04:33N 42°58' E 005°31'21 6.8
2014-Sep-18 01:31N 43°12' E 005°10'7 7.6
2014-Sep-18 00:33N 43°16' E 005°02'8 7.7
2014-Sep-17 23:33N 43°23' E 004°57'4 3.6
2014-Sep-17 22:33N 43°26' E 004°54'0 0.0
2014-Sep-17 21:31N 43°26' E 004°54'0 0.0
2014-Sep-17 20:31N 43°26' E 004°54'0 0.0
2014-Sep-17 19:32N 43°26' E 004°54'0 0.0
2014-Sep-17 18:32N 43°26' E 004°54'0 0.0
2014-Sep-17 17:32N 43°26' E 004°54'0 0.0
2014-Sep-17 16:32N 43°26' E 004°54'0 0.0
2014-Sep-17 15:32N 43°26' E 004°54'0 0.0
2014-Sep-17 14:32N 43°26' E 004°54'0 0.0
2014-Sep-17 13:33N 43°26' E 004°54'0 0.0
2014-Sep-17 12:33N 43°26' E 004°54'0 0.0
2014-Sep-17 11:33N 43°26' E 004°54'0 0.0
2014-Sep-17 10:33N 43°26' E 004°54'0 0.0
2014-Sep-17 09:33N 43°26' E 004°54'0 0.4
2014-Sep-17 08:33N 43°25' E 004°53'2 2.1
2014-Sep-17 07:31N 43°24' E 004°51'0 0.0
2014-Sep-17 06:25N 43°24' E 004°51'0 0.0
2014-Sep-17 05:31N 43°24' E 004°51'0 0.0
2014-Sep-17 04:28N 43°24' E 004°51'0 0.0
2014-Sep-17 03:31N 43°24' E 004°51'0 0.0
2014-Sep-17 02:31N 43°24' E 004°51'0 0.0
2014-Sep-17 01:28N 43°24' E 004°51'0 0.0
2014-Sep-17 00:28N 43°24' E 004°51'0 0.0
2014-Sep-16 23:28N 43°24' E 004°51'0 0.0
2014-Sep-16 22:28N 43°24' E 004°51'0 0.0
2014-Sep-16 21:31N 43°24' E 004°51'0 0.0
2014-Sep-16 20:28N 43°24' E 004°51'0 0.0
2014-Sep-16 19:28N 43°24' E 004°51'0 0.0
2014-Sep-16 18:28N 43°24' E 004°51'0 0.0
2014-Sep-16 17:31N 43°24' E 004°51'0 0.0
2014-Sep-16 16:28N 43°24' E 004°51'0 0.0
2014-Sep-16 15:28N 43°24' E 004°51'0 0.0
2014-Sep-16 14:28N 43°24' E 004°51'0 0.0
2014-Sep-16 13:25N 43°24' E 004°51'0 0.0
2014-Sep-16 12:28N 43°24' E 004°51'0 0.0
2014-Sep-16 11:28N 43°24' E 004°51'0 0.0
2014-Sep-16 10:31N 43°24' E 004°51'0 0.0
2014-Sep-16 09:31N 43°24' E 004°51'0 0.0
2014-Sep-16 08:31N 43°24' E 004°51'0 0.0
2014-Sep-16 07:28N 43°24' E 004°51'0 0.0
2014-Sep-16 06:25N 43°24' E 004°51'0 0.0
2014-Sep-16 05:31N 43°24' E 004°51'0 0.0
2014-Sep-16 04:28N 43°24' E 004°51'0 0.0
2014-Sep-16 03:28N 43°24' E 004°51'0 0.0
2014-Sep-16 02:31N 43°24' E 004°51'0 0.0
2014-Sep-16 01:31N 43°24' E 004°51'0 0.0
2014-Sep-16 00:31N 43°24' E 004°51'0 0.0
2014-Sep-15 23:31N 43°24' E 004°51'0 0.0
2014-Sep-15 22:31N 43°24' E 004°51'0 0.0
2014-Sep-15 21:22N 43°24' E 004°51'0 0.0
2014-Sep-15 20:31N 43°24' E 004°51'0 0.0
2014-Sep-15 19:31N 43°24' E 004°51'0 0.0
2014-Sep-15 18:31N 43°24' E 004°51'0 0.0
2014-Sep-15 17:28N 43°24' E 004°51'0 0.0
2014-Sep-15 16:31N 43°24' E 004°51'0 0.0
2014-Sep-15 15:31N 43°24' E 004°51'0 0.0
2014-Sep-15 14:31N 43°24' E 004°51'0 0.0
2014-Sep-15 13:28N 43°24' E 004°51'0 0.0
2014-Sep-15 12:31N 43°24' E 004°51'0 0.0
2014-Sep-15 11:31N 43°24' E 004°51'0 0.0
2014-Sep-15 10:28N 43°24' E 004°51'0 0.0
2014-Sep-15 09:31N 43°24' E 004°51'0 0.0
2014-Sep-15 08:28N 43°24' E 004°51'0 0.0
2014-Sep-15 07:31N 43°24' E 004°51'0 0.0
2014-Sep-15 06:31N 43°24' E 004°51'0 0.0
2014-Sep-15 05:31N 43°24' E 004°51'0 0.0
2014-Sep-15 04:31N 43°24' E 004°51'0 0.0
2014-Sep-15 03:28N 43°24' E 004°51'0 0.0
2014-Sep-15 02:28N 43°24' E 004°51'0 0.0
2014-Sep-15 01:25N 43°24' E 004°51'0 0.0
2014-Sep-15 00:25N 43°24' E 004°51'0 0.0
2014-Sep-14 23:31N 43°24' E 004°51'0 0.0
2014-Sep-14 22:28N 43°24' E 004°51'0 0.0
2014-Sep-14 21:28N 43°24' E 004°51'0 0.0
2014-Sep-14 20:25N 43°24' E 004°51'0 0.0
2014-Sep-14 19:22N 43°24' E 004°51'0 0.0
2014-Sep-14 18:31N 43°24' E 004°51'0 0.0
2014-Sep-14 17:28N 43°24' E 004°51'0 0.0
2014-Sep-14 16:28N 43°24' E 004°51'0 0.0
2014-Sep-14 15:31N 43°24' E 004°51'0 0.0
2014-Sep-14 14:31N 43°24' E 004°51'0 0.0
2014-Sep-14 13:28N 43°24' E 004°51'0 0.0
2014-Sep-14 12:28N 43°24' E 004°51'0 0.0
2014-Sep-14 11:28N 43°24' E 004°51'0 0.0
2014-Sep-14 10:31N 43°24' E 004°51'4 3.9
2014-Sep-14 09:33N 43°23' E 004°56'8 8.4
2014-Sep-14 08:33N 43°16' E 005°02'1310.3
2014-Sep-14 07:19N 43°08' E 005°15'1810.2
2014-Sep-14 05:33N 42°56' E 005°34'1110.6
2014-Sep-14 04:33N 42°50' E 005°46'1110.5
2014-Sep-14 03:33N 42°45' E 005°58'1010.1
2014-Sep-14 02:34N 42°40' E 006°10'10 9.6
2014-Sep-14 01:33N 42°35' E 006°22'  

Dump ship's entire track history